Time;durP1;ratioP1;P1;durP2;ratioP2;P2;SDS_P1;SDS_P2;PMS_P1;PMS_P2;Temp;Humidity;BMP_temperature;BMP_pressure;BME280_temperature;BME280_humidity;BME280_pressure;Samples;Min_cycle;Max_cycle;Signal;HPM_P1;HPM_P2
2021/12/29 00:01:25;;;;;;;;;;;19.60;54.30;;;;;;5030960;28;1212;-67
2021/12/29 00:03:50;;;;;;;;;;;19.60;54.30;;;;;;5029926;28;1320;-66
2021/12/29 00:06:16;;;;;;;;;;;19.50;54.30;;;;;;5036318;28;1071;-66
2021/12/29 00:08:41;;;;;;;;;;;19.60;54.30;;;;;;5034861;28;1304;-66
2021/12/29 00:11:07;;;;;;;;;;;19.60;54.40;;;;;;5035777;28;1906;-66
2021/12/29 00:13:32;;;;;;;;;;;19.60;54.40;;;;;;5035836;28;1368;-67
2021/12/29 00:15:58;;;;;;;;;;;19.50;54.40;;;;;;5036216;28;1090;-68
2021/12/29 00:18:24;;;;;;;;;;;19.50;54.40;;;;;;5036427;28;1079;-67
2021/12/29 00:20:49;;;;;;;;;;;19.50;54.50;;;;;;5035772;28;1275;-67
2021/12/29 00:23:15;;;;;;;;;;;19.50;54.50;;;;;;5035606;28;1022;-68
2021/12/29 00:25:41;;;;;;;;;;;19.50;54.50;;;;;;5035546;28;1127;-68
2021/12/29 00:28:06;;;;;;;;;;;19.50;54.50;;;;;;5036106;28;1296;-69
2021/12/29 00:30:32;;;;;;;;;;;19.40;54.50;;;;;;5035648;28;1949;-70
2021/12/29 00:32:57;;;;;;;;;;;19.50;54.60;;;;;;5035353;28;1358;-69
2021/12/29 00:35:23;;;;;;;;;;;19.50;54.60;;;;;;5035475;28;1478;-69
2021/12/29 00:37:48;;;;;;;;;;;19.40;54.60;;;;;;5035707;28;1383;-70
2021/12/29 00:40:14;;;;;;;;;;;19.40;54.60;;;;;;5034093;28;1129;-69
2021/12/29 00:42:39;;;;;;;;;;;19.40;54.60;;;;;;5035302;28;1368;-68
2021/12/29 00:45:05;;;;;;;;;;;19.40;54.70;;;;;;5034124;28;1286;-69
2021/12/29 00:47:33;;;;;;;;;;;19.40;54.70;;;;;;5035365;28;1338;-68
2021/12/29 00:49:59;;;;;;;;;;;19.40;54.70;;;;;;5033928;28;1906;-68
2021/12/29 00:52:25;;;;;;;;;;;19.40;54.80;;;;;;5033997;28;1365;-68
2021/12/29 00:54:50;;;;;;;;;;;19.30;54.70;;;;;;5033679;28;1073;-68
2021/12/29 00:57:15;;;;;;;;;;;19.40;54.80;;;;;;5034946;28;1072;-68
2021/12/29 00:59:41;;;;;;;;;;;19.40;54.80;;;;;;5034897;28;1349;-69
2021/12/29 01:02:06;;;;;;;;;;;19.40;54.80;;;;;;5033795;28;1304;-70
2021/12/29 01:04:32;;;;;;;;;;;19.40;54.80;;;;;;5034603;28;1352;-69
2021/12/29 01:06:57;;;;;;;;;;;19.40;54.80;;;;;;5035119;28;1274;-70
2021/12/29 01:09:23;;;;;;;;;;;19.40;54.70;;;;;;5034712;28;1894;-69
2021/12/29 01:11:48;;;;;;;;;;;19.40;54.70;;;;;;5034943;28;1247;-69
2021/12/29 01:14:17;;;;;;;;;;;19.40;54.70;;;;;;5034521;28;1088;-67
2021/12/29 01:16:44;;;;;;;;;;;19.40;54.70;;;;;;5035066;28;1314;-67
2021/12/29 01:19:11;;;;;;;;;;;19.40;54.70;;;;;;5034831;28;1270;-68
2021/12/29 01:21:38;;;;;;;;;;;19.40;54.70;;;;;;5034781;28;1397;-69
2021/12/29 01:24:03;;;;;;;;;;;19.40;54.70;;;;;;5034420;28;1350;-69
2021/12/29 01:26:29;;;;;;;;;;;19.40;54.70;;;;;;5034272;28;1102;-69
2021/12/29 01:28:54;;;;;;;;;;;19.40;54.70;;;;;;5034578;28;1087;-69
2021/12/29 01:31:19;;;;;;;;;;;19.40;54.70;;;;;;5034278;28;1894;-70
2021/12/29 01:33:45;;;;;;;;;;;19.40;54.70;;;;;;5034115;28;1278;-68
2021/12/29 01:36:10;;;;;;;;;;;19.40;54.70;;;;;;5034537;28;1319;-70
2021/12/29 01:38:36;;;;;;;;;;;19.40;54.70;;;;;;5034923;28;1318;-69
2021/12/29 01:41:01;;;;;;;;;;;19.40;54.70;;;;;;5032781;28;1256;-68
2021/12/29 01:43:27;;;;;;;;;;;19.40;54.70;;;;;;5034060;28;1388;-69
2021/12/29 01:45:52;;;;;;;;;;;19.40;54.70;;;;;;5034174;28;1472;-69
2021/12/29 01:48:18;;;;;;;;;;;19.40;54.70;;;;;;5034438;28;1362;-70
2021/12/29 01:50:48;;;;;;;;;;;19.40;54.70;;;;;;5033940;28;1910;-70
2021/12/29 01:53:22;;;;;;;;;;;19.40;54.70;;;;;;5034248;28;1338;-70
2021/12/29 01:55:47;;;;;;;;;;;19.40;54.70;;;;;;5033744;28;1068;-69
2021/12/29 01:58:13;;;;;;;;;;;19.40;54.70;;;;;;5034025;28;1268;-70
2021/12/29 02:00:38;;;;;;;;;;;19.40;54.70;;;;;;5033606;28;1288;-69
2021/12/29 02:03:07;;;;;;;;;;;19.40;54.70;;;;;;5033696;28;1085;-68
2021/12/29 02:05:33;;;;;;;;;;;19.40;54.70;;;;;;5033810;28;1637;-69
2021/12/29 02:07:58;;;;;;;;;;;19.40;54.70;;;;;;5033902;28;1290;-68
2021/12/29 02:10:24;;;;;;;;;;;19.40;54.70;;;;;;5033296;28;1894;-68
2021/12/29 02:12:50;;;;;;;;;;;19.40;54.70;;;;;;5033257;28;1471;-68
2021/12/29 02:15:15;;;;;;;;;;;19.40;54.70;;;;;;5033901;28;1300;-68
2021/12/29 02:17:41;;;;;;;;;;;19.40;54.80;;;;;;5020457;28;1143;-69
2021/12/29 02:20:07;;;;;;;;;;;19.40;54.80;;;;;;5033616;28;1319;-69
2021/12/29 02:22:40;;;;;;;;;;;19.40;54.80;;;;;;5035573;28;1259;-69
2021/12/29 02:25:21;;;;;;;;;;;19.40;54.80;;;;;;5037530;28;1471;-69
2021/12/29 02:27:47;;;;;;;;;;;19.40;54.80;;;;;;5034374;28;1470;-70
2021/12/29 02:30:12;;;;;;;;;;;19.40;54.80;;;;;;5034029;28;1902;-69
2021/12/29 02:32:38;;;;;;;;;;;19.40;54.80;;;;;;5034161;28;1215;-68
2021/12/29 02:35:03;;;;;;;;;;;19.40;54.80;;;;;;5036045;28;1363;-68
2021/12/29 02:37:29;;;;;;;;;;;19.40;54.80;;;;;;5035049;28;1285;-68
2021/12/29 02:39:54;;;;;;;;;;;19.40;54.90;;;;;;5035278;28;1437;-68
2021/12/29 02:42:20;;;;;;;;;;;19.40;54.90;;;;;;5034015;28;1322;-68
2021/12/29 02:44:46;;;;;;;;;;;19.40;54.80;;;;;;5033418;28;1283;-68
2021/12/29 02:47:12;;;;;;;;;;;19.50;54.80;;;;;;5033506;28;1435;-68
2021/12/29 02:49:37;;;;;;;;;;;19.50;54.70;;;;;;5033254;28;1959;-68
2021/12/29 02:52:03;;;;;;;;;;;19.50;54.70;;;;;;5033258;28;1404;-66
2021/12/29 02:54:29;;;;;;;;;;;19.50;54.60;;;;;;5033160;28;1305;-65
2021/12/29 02:56:54;;;;;;;;;;;19.60;54.60;;;;;;5033312;28;1242;-67
2021/12/29 02:59:20;;;;;;;;;;;19.60;54.40;;;;;;5033476;28;1323;-65
2021/12/29 03:01:46;;;;;;;;;;;19.60;54.40;;;;;;5020262;28;1214;-68
2021/12/29 03:04:11;;;;;;;;;;;19.70;54.30;;;;;;5029039;28;1088;-69
2021/12/29 03:06:37;;;;;;;;;;;19.70;54.20;;;;;;5032918;28;1083;-69
2021/12/29 03:09:03;;;;;;;;;;;19.70;54.10;;;;;;5032857;28;1169;-69
2021/12/29 03:11:29;;;;;;;;;;;19.70;54.10;;;;;;5031514;28;1959;-69
2021/12/29 03:13:54;;;;;;;;;;;19.70;54.00;;;;;;5032385;28;1286;-69
2021/12/29 03:16:20;;;;;;;;;;;19.80;54.00;;;;;;5032763;28;1087;-68
2021/12/29 03:18:45;;;;;;;;;;;19.80;53.90;;;;;;5026857;28;1311;-69
2021/12/29 03:21:11;;;;;;;;;;;19.80;53.90;;;;;;5026468;28;1364;-68
2021/12/29 03:23:36;;;;;;;;;;;19.80;53.80;;;;;;5025206;28;1215;-69
2021/12/29 03:26:02;;;;;;;;;;;19.80;53.80;;;;;;5027688;28;1279;-68
2021/12/29 03:28:28;;;;;;;;;;;19.80;53.80;;;;;;5028736;28;1385;-67
2021/12/29 03:30:55;;;;;;;;;;;19.80;53.80;;;;;;5033259;28;1894;-66
2021/12/29 03:33:21;;;;;;;;;;;19.90;53.80;;;;;;5033823;28;1274;-67
2021/12/29 03:35:51;;;;;;;;;;;19.90;53.80;;;;;;5035333;28;1088;-68
2021/12/29 03:38:18;;;;;;;;;;;19.90;53.70;;;;;;5035513;28;1188;-68
2021/12/29 03:40:43;;;;;;;;;;;19.90;53.70;;;;;;5036417;28;1184;-68
2021/12/29 03:43:12;;;;;;;;;;;19.90;53.70;;;;;;5036928;28;1345;-67
2021/12/29 03:45:37;;;;;;;;;;;19.90;53.70;;;;;;5036516;28;1647;-68
2021/12/29 03:48:06;;;;;;;;;;;19.90;53.70;;;;;;5036327;28;1276;-68
2021/12/29 03:50:31;;;;;;;;;;;19.90;53.70;;;;;;5036372;28;1906;-67
2021/12/29 03:52:57;;;;;;;;;;;19.90;53.70;;;;;;5036264;28;1295;-68
2021/12/29 03:55:22;;;;;;;;;;;19.90;53.70;;;;;;5018879;28;1334;-68
2021/12/29 03:57:48;;;;;;;;;;;19.90;53.70;;;;;;5036519;28;1099;-67
2021/12/29 04:00:14;;;;;;;;;;;19.90;53.70;;;;;;5035102;28;1082;-68
2021/12/29 04:02:39;;;;;;;;;;;19.90;53.70;;;;;;5023036;28;1295;-68
2021/12/29 04:05:05;;;;;;;;;;;19.90;53.70;;;;;;5036262;28;1437;-69
2021/12/29 04:07:31;;;;;;;;;;;19.90;53.70;;;;;;5036365;28;1389;-68
2021/12/29 04:10:00;;;;;;;;;;;19.90;53.70;;;;;;5036165;28;1906;-68
2021/12/29 04:12:25;;;;;;;;;;;19.90;53.70;;;;;;5036082;28;1254;-67
2021/12/29 04:14:51;;;;;;;;;;;19.90;53.70;;;;;;5035846;28;1122;-67
2021/12/29 04:17:18;;;;;;;;;;;19.90;53.70;;;;;;5035996;28;1207;-68
2021/12/29 04:22:35;;;;;;;;;;;19.90;53.80;;;;;;5012583;28;1259;-69
2021/12/29 04:25:01;;;;;;;;;;;19.90;53.80;;;;;;5034130;28;1306;-69
2021/12/29 04:27:26;;;;;;;;;;;19.90;53.70;;;;;;5034823;28;1124;-69
2021/12/29 04:29:52;;;;;;;;;;;19.80;53.70;;;;;;5033996;28;1956;-69
2021/12/29 04:32:18;;;;;;;;;;;19.90;53.80;;;;;;5034446;28;1295;-70
2021/12/29 04:34:43;;;;;;;;;;;19.90;53.80;;;;;;5034988;28;1407;-69
2021/12/29 04:37:08;;;;;;;;;;;19.80;53.80;;;;;;5035742;28;1302;-69
2021/12/29 04:39:34;;;;;;;;;;;19.90;53.80;;;;;;5035519;28;1052;-68
2021/12/29 04:41:59;;;;;;;;;;;19.80;53.80;;;;;;5033981;28;1286;-70
2021/12/29 04:44:25;;;;;;;;;;;19.80;53.80;;;;;;5035244;28;1429;-70
2021/12/29 04:46:51;;;;;;;;;;;19.80;53.80;;;;;;5035598;28;1052;-69
2021/12/29 04:49:22;;;;;;;;;;;19.80;53.80;;;;;;5035504;28;1433;-70
2021/12/29 04:51:54;;;;;;;;;;;19.80;53.80;;;;;;5034076;28;1269;-70
2021/12/29 04:54:20;;;;;;;;;;;19.80;53.80;;;;;;5033953;28;1398;-70
2021/12/29 04:56:45;;;;;;;;;;;19.80;53.80;;;;;;5035047;28;1115;-69
2021/12/29 04:59:10;;;;;;;;;;;19.80;53.90;;;;;;5034933;28;1297;-70
2021/12/29 05:01:36;;;;;;;;;;;19.80;53.90;;;;;;5026929;28;1283;-70
2021/12/29 05:04:01;;;;;;;;;;;19.80;53.90;;;;;;5029643;28;1408;-69
2021/12/29 05:09:11;;;;;;;;;;;19.80;53.90;;;;;;5035056;28;1072;-69
2021/12/29 05:11:36;;;;;;;;;;;19.80;54.00;;;;;;5034409;28;1975;-69
2021/12/29 05:14:02;;;;;;;;;;;19.80;54.00;;;;;;5034591;28;1481;-69
2021/12/29 05:16:28;;;;;;;;;;;19.80;54.00;;;;;;5033722;28;1099;-70
2021/12/29 05:18:54;;;;;;;;;;;19.80;54.00;;;;;;5033562;28;1378;-70
2021/12/29 05:21:19;;;;;;;;;;;19.80;54.00;;;;;;5034723;28;1349;-70
2021/12/29 05:23:44;;;;;;;;;;;19.80;54.00;;;;;;5034773;28;1110;-70
2021/12/29 05:26:10;;;;;;;;;;;19.70;54.00;;;;;;5034488;28;1063;-69
2021/12/29 05:28:35;;;;;;;;;;;19.80;54.00;;;;;;5034510;28;1187;-70
2021/12/29 05:31:01;;;;;;;;;;;19.70;54.00;;;;;;5034205;28;1964;-70
2021/12/29 05:33:26;;;;;;;;;;;19.70;54.10;;;;;;5034231;28;1495;-69
2021/12/29 05:35:51;;;;;;;;;;;19.70;54.00;;;;;;5034406;28;1123;-70
2021/12/29 05:38:17;;;;;;;;;;;19.70;54.00;;;;;;5034509;28;1142;-70
2021/12/29 05:40:42;;;;;;;;;;;19.80;54.10;;;;;;5034033;28;1321;-69
2021/12/29 05:43:08;;;;;;;;;;;19.70;54.00;;;;;;5032894;28;1186;-70
2021/12/29 05:45:33;;;;;;;;;;;19.80;54.00;;;;;;5034232;28;1096;-70
2021/12/29 05:47:59;;;;;;;;;;;19.80;54.00;;;;;;5033551;28;1319;-68
2021/12/29 05:50:25;;;;;;;;;;;19.80;54.00;;;;;;5034136;28;1905;-70
2021/12/29 05:52:51;;;;;;;;;;;19.80;54.00;;;;;;5032750;28;1136;-69
2021/12/29 05:55:16;;;;;;;;;;;19.90;53.90;;;;;;5033720;28;1090;-70
2021/12/29 05:57:42;;;;;;;;;;;19.90;53.80;;;;;;5034203;28;1406;-69
2021/12/29 06:00:11;;;;;;;;;;;20.00;53.70;;;;;;5033962;28;1389;-68
2021/12/29 06:02:36;;;;;;;;;;;20.00;53.50;;;;;;5034036;28;1363;-69
2021/12/29 06:05:02;;;;;;;;;;;20.00;53.40;;;;;;5032538;28;1074;-70
2021/12/29 06:07:28;;;;;;;;;;;20.00;53.40;;;;;;5033911;28;979;-68
2021/12/29 06:09:53;;;;;;;;;;;20.10;53.40;;;;;;5032210;28;1894;-69
2021/12/29 06:12:18;;;;;;;;;;;20.10;53.30;;;;;;5032580;28;1350;-69
2021/12/29 06:14:44;;;;;;;;;;;20.10;53.30;;;;;;5032260;28;1123;-69
2021/12/29 06:17:10;;;;;;;;;;;20.10;53.20;;;;;;5033598;28;1059;-69
2021/12/29 06:19:36;;;;;;;;;;;20.20;53.20;;;;;;5033671;28;1354;-68
2021/12/29 06:22:01;;;;;;;;;;;20.20;53.20;;;;;;5033412;28;1373;-70
2021/12/29 06:24:27;;;;;;;;;;;20.20;53.10;;;;;;5033501;28;1123;-69
2021/12/29 06:26:52;;;;;;;;;;;20.20;53.10;;;;;;5033398;28;1228;-69
2021/12/29 06:29:18;;;;;;;;;;;20.20;53.10;;;;;;5034004;28;1060;-69
2021/12/29 06:31:45;;;;;;;;;;;20.20;53.00;;;;;;5033231;28;1890;-69
2021/12/29 06:34:10;;;;;;;;;;;20.20;53.10;;;;;;5032158;28;2016;-68
2021/12/29 06:36:36;;;;;;;;;;;20.20;53.10;;;;;;5027850;28;2172;-67
2021/12/29 06:39:01;;;;;;;;;;;20.20;53.10;;;;;;5032848;28;1075;-68
2021/12/29 06:41:27;;;;;;;;;;;20.20;53.10;;;;;;5031866;28;1209;-68
2021/12/29 06:43:52;;;;;;;;;;;20.20;53.10;;;;;;5028553;28;2195;-67
2021/12/29 06:46:18;;;;;;;;;;;20.20;53.10;;;;;;5031283;28;1178;-68
2021/12/29 06:48:43;;;;;;;;;;;20.20;53.10;;;;;;5033154;28;1161;-68
2021/12/29 06:51:08;;;;;;;;;;;20.20;53.10;;;;;;5032839;28;1918;-68
2021/12/29 06:53:34;;;;;;;;;;;20.10;53.70;;;;;;5032569;28;1273;-68
2021/12/29 06:55:59;;;;;;;;;;;20.20;53.20;;;;;;5033067;28;1344;-68
2021/12/29 06:58:25;;;;;;;;;;;20.10;53.10;;;;;;5033109;28;1027;-68
2021/12/29 07:00:50;;;;;;;;;;;20.10;53.10;;;;;;5031561;28;1313;-68
2021/12/29 07:03:16;;;;;;;;;;;20.10;53.20;;;;;;5032638;28;1294;-68
2021/12/29 07:05:41;;;;;;;;;;;20.10;53.20;;;;;;5032904;28;1354;-69
2021/12/29 07:08:07;;;;;;;;;;;20.10;53.20;;;;;;5032883;28;1328;-68
2021/12/29 07:10:32;;;;;;;;;;;20.10;53.30;;;;;;5032549;28;1974;-69
2021/12/29 07:13:01;;;;;;;;;;;20.10;53.30;;;;;;5032574;28;1347;-68
2021/12/29 07:15:26;;;;;;;;;;;20.10;53.30;;;;;;5031598;28;1398;-69
2021/12/29 07:17:52;;;;;;;;;;;20.00;53.30;;;;;;5032941;28;1342;-69
2021/12/29 07:20:17;;;;;;;;;;;20.00;53.30;;;;;;5032799;28;1339;-68
2021/12/29 07:22:42;;;;;;;;;;;20.10;53.40;;;;;;5032618;28;1306;-68
2021/12/29 07:25:08;;;;;;;;;;;20.00;53.30;;;;;;5032534;28;1324;-68
2021/12/29 07:27:34;;;;;;;;;;;20.00;53.40;;;;;;5031481;28;1116;-68
2021/12/29 07:29:59;;;;;;;;;;;20.00;53.40;;;;;;5032755;28;1961;-68
2021/12/29 07:32:26;;;;;;;;;;;20.10;53.40;;;;;;5032653;28;1283;-68
2021/12/29 07:34:51;;;;;;;;;;;20.00;53.40;;;;;;5032509;28;1354;-68
2021/12/29 07:37:16;;;;;;;;;;;20.00;53.40;;;;;;5032446;28;1296;-68
2021/12/29 07:39:42;;;;;;;;;;;20.00;53.40;;;;;;5032647;28;1257;-68
2021/12/29 07:42:11;;;;;;;;;;;20.00;53.40;;;;;;5032880;28;1348;-68
2021/12/29 07:44:38;;;;;;;;;;;20.00;53.40;;;;;;5032352;28;1264;-67
2021/12/29 07:47:05;;;;;;;;;;;20.00;53.50;;;;;;5023435;28;1422;-66
2021/12/29 07:49:31;;;;;;;;;;;20.00;53.50;;;;;;5027565;28;1902;-67
2021/12/29 07:51:56;;;;;;;;;;;20.00;53.50;;;;;;5030635;28;1318;-69
2021/12/29 07:54:22;;;;;;;;;;;20.00;53.50;;;;;;5031486;28;1067;-69
2021/12/29 07:56:47;;;;;;;;;;;20.00;53.50;;;;;;5014703;28;1080;-68
2021/12/29 07:59:12;;;;;;;;;;;20.00;53.50;;;;;;5031532;28;737;-68
2021/12/29 08:01:38;;;;;;;;;;;20.00;53.60;;;;;;5031327;28;1323;-69
2021/12/29 08:04:03;;;;;;;;;;;20.00;53.60;;;;;;5030985;28;1057;-68
2021/12/29 08:06:29;;;;;;;;;;;20.00;53.60;;;;;;5032225;28;1084;-68
2021/12/29 08:08:54;;;;;;;;;;;20.00;53.60;;;;;;5030708;28;1134;-68
2021/12/29 08:11:20;;;;;;;;;;;20.10;53.50;;;;;;5023339;28;1955;-68
2021/12/29 08:13:46;;;;;;;;;;;20.20;53.40;;;;;;5035698;28;1119;-68
2021/12/29 08:16:11;;;;;;;;;;;20.30;53.30;;;;;;5036119;28;1071;-68
2021/12/29 08:18:37;;;;;;;;;;;20.40;53.20;;;;;;5035961;28;1065;-68
2021/12/29 08:21:02;;;;;;;;;;;20.50;53.10;;;;;;5035745;28;1367;-70
2021/12/29 08:23:28;;;;;;;;;;;20.50;52.80;;;;;;5035496;28;1131;-68
2021/12/29 08:25:53;;;;;;;;;;;20.60;52.70;;;;;;5034841;28;1045;-68
2021/12/29 08:28:20;;;;;;;;;;;20.70;52.50;;;;;;5032238;28;1103;-68
2021/12/29 08:30:45;;;;;;;;;;;20.80;52.30;;;;;;5035525;28;1898;-68
2021/12/29 08:33:11;;;;;;;;;;;20.90;52.20;;;;;;5035460;28;789;-71
2021/12/29 08:35:36;;;;;;;;;;;20.90;52.00;;;;;;5035489;28;1151;-69
2021/12/29 08:38:02;;;;;;;;;;;21.00;51.90;;;;;;5035580;28;1059;-68
2021/12/29 08:40:27;;;;;;;;;;;21.10;51.80;;;;;;5034145;28;1267;-70
2021/12/29 08:42:55;;;;;;;;;;;21.10;51.70;;;;;;5035341;28;1107;-68
2021/12/29 08:45:22;;;;;;;;;;;21.20;51.60;;;;;;5035400;28;1059;-68
2021/12/29 08:47:47;;;;;;;;;;;21.20;51.50;;;;;;5035428;28;1052;-68
2021/12/29 08:50:14;;;;;;;;;;;21.20;51.50;;;;;;5035129;28;1914;-68
2021/12/29 08:52:40;;;;;;;;;;;21.30;51.40;;;;;;5015183;28;1648;-68
2021/12/29 08:55:05;;;;;;;;;;;21.30;51.40;;;;;;5035389;28;1138;-68
2021/12/29 08:57:31;;;;;;;;;;;21.30;51.30;;;;;;5035354;28;1130;-68
2021/12/29 08:59:56;;;;;;;;;;;21.30;51.30;;;;;;5035234;28;1079;-69
2021/12/29 09:02:24;;;;;;;;;;;21.40;51.30;;;;;;5028602;28;1689;-68
2021/12/29 09:04:49;;;;;;;;;;;21.40;51.30;;;;;;5026965;28;1292;-68
2021/12/29 09:07:14;;;;;;;;;;;21.40;51.30;;;;;;5031744;28;1094;-69
2021/12/29 09:09:40;;;;;;;;;;;21.40;51.30;;;;;;5025313;28;1914;-68
2021/12/29 09:12:05;;;;;;;;;;;21.40;51.30;;;;;;5020393;28;1300;-68
2021/12/29 09:14:31;;;;;;;;;;;21.40;51.30;;;;;;5022677;28;1053;-68
2021/12/29 09:16:56;;;;;;;;;;;21.40;51.20;;;;;;5031361;28;973;-68
2021/12/29 09:19:22;;;;;;;;;;;21.40;51.20;;;;;;5027719;28;1102;-68
2021/12/29 09:21:52;;;;;;;;;;;21.40;51.20;;;;;;5026571;28;1292;-68
2021/12/29 09:24:17;;;;;;;;;;;21.40;51.30;;;;;;5034845;28;1134;-68
2021/12/29 09:26:43;;;;;;;;;;;21.40;51.20;;;;;;5034620;28;1127;-68
2021/12/29 09:29:08;;;;;;;;;;;21.30;51.20;;;;;;5034726;28;1087;-70
2021/12/29 09:31:34;;;;;;;;;;;21.30;51.30;;;;;;5034277;28;1894;-70
2021/12/29 09:33:59;;;;;;;;;;;21.30;51.30;;;;;;5034275;28;1353;-69
2021/12/29 09:36:25;;;;;;;;;;;21.30;51.40;;;;;;5033084;28;1187;-69
2021/12/29 09:38:50;;;;;;;;;;;21.20;51.40;;;;;;5034557;28;1317;-69
2021/12/29 09:41:16;;;;;;;;;;;21.30;51.50;;;;;;5034155;28;1294;-69
2021/12/29 09:43:42;;;;;;;;;;;21.20;51.50;;;;;;5008369;28;1350;-69
2021/12/29 09:46:08;;;;;;;;;;;21.20;51.60;;;;;;5027815;28;1333;-69
2021/12/29 09:48:34;;;;;;;;;;;21.20;51.60;;;;;;5034163;28;1126;-69
2021/12/29 09:51:00;;;;;;;;;;;21.10;51.60;;;;;;5033909;28;1910;-70
2021/12/29 09:53:25;;;;;;;;;;;21.10;51.70;;;;;;5034025;28;1258;-69
2021/12/29 09:55:50;;;;;;;;;;;21.10;51.80;;;;;;5032732;28;1404;-70
2021/12/29 09:58:16;;;;;;;;;;;21.10;51.80;;;;;;5032676;28;1120;-69
2021/12/29 10:00:43;;;;;;;;;;;21.10;51.90;;;;;;5032854;28;1306;-69
2021/12/29 10:03:10;;;;;;;;;;;21.10;52.00;;;;;;5020101;28;1258;-70
2021/12/29 10:05:36;;;;;;;;;;;21.00;52.00;;;;;;5033769;28;1298;-69
2021/12/29 10:08:03;;;;;;;;;;;21.00;52.00;;;;;;5032743;28;1094;-69
2021/12/29 10:10:29;;;;;;;;;;;21.00;52.10;;;;;;5032378;28;1933;-70
2021/12/29 10:12:54;;;;;;;;;;;21.00;52.20;;;;;;5033737;28;1028;-69
2021/12/29 10:15:25;;;;;;;;;;;20.90;52.10;;;;;;5032194;28;1276;-69
2021/12/29 10:17:58;;;;;;;;;;;20.90;52.20;;;;;;5033673;28;1392;-70
2021/12/29 10:20:24;;;;;;;;;;;20.90;52.20;;;;;;5033567;28;1473;-69
2021/12/29 10:22:56;;;;;;;;;;;20.90;52.20;;;;;;5033335;28;1264;-70
2021/12/29 10:25:24;;;;;;;;;;;21.00;52.30;;;;;;5033543;28;1256;-69
2021/12/29 10:27:51;;;;;;;;;;;21.00;52.30;;;;;;5033485;28;1276;-69
2021/12/29 10:30:17;;;;;;;;;;;21.00;52.20;;;;;;5033768;28;1970;-69
2021/12/29 10:32:42;;;;;;;;;;;21.00;52.20;;;;;;5033069;28;1284;-69
2021/12/29 10:35:08;;;;;;;;;;;21.00;52.20;;;;;;5033368;28;1335;-70
2021/12/29 10:37:33;;;;;;;;;;;21.00;52.20;;;;;;5032150;28;1321;-69
2021/12/29 10:39:59;;;;;;;;;;;21.00;52.20;;;;;;5033400;28;1334;-69
2021/12/29 10:42:25;;;;;;;;;;;21.00;52.20;;;;;;5033064;28;1338;-69
2021/12/29 10:44:56;;;;;;;;;;;21.00;52.20;;;;;;5032717;28;1260;-70
2021/12/29 10:47:22;;;;;;;;;;;21.00;52.20;;;;;;5032150;28;1294;-69
2021/12/29 10:49:49;;;;;;;;;;;21.00;52.20;;;;;;5031884;28;1910;-70
2021/12/29 10:52:15;;;;;;;;;;;21.00;52.30;;;;;;5033083;28;1388;-70
2021/12/29 10:54:40;;;;;;;;;;;21.00;52.30;;;;;;5031678;28;1336;-69
2021/12/29 10:57:07;;;;;;;;;;;21.00;52.90;;;;;;5033067;28;1089;-71
2021/12/29 10:59:34;;;;;;;;;;;20.90;52.30;;;;;;5032962;28;1047;-66
2021/12/29 11:01:59;;;;;;;;;;;21.00;52.30;;;;;;5009148;28;1395;-68
2021/12/29 11:04:25;;;;;;;;;;;20.90;52.30;;;;;;5028955;28;1308;-68
2021/12/29 11:06:51;;;;;;;;;;;20.90;52.30;;;;;;5032021;28;1314;-71
2021/12/29 11:09:27;;;;;;;;;;;20.90;52.30;;;;;;5030633;28;1371;-71
2021/12/29 11:11:53;;;;;;;;;;;20.90;52.30;;;;;;5030903;28;2044;-69
2021/12/29 11:14:21;;;;;;;;;;;20.90;52.40;;;;;;5025664;28;998;-69
2021/12/29 11:16:47;;;;;;;;;;;20.90;52.40;;;;;;5024389;28;1134;-70
2021/12/29 11:19:12;;;;;;;;;;;20.90;52.40;;;;;;5030756;28;1513;-72
2021/12/29 11:21:39;;;;;;;;;;;20.90;52.40;;;;;;5031543;28;1307;-69
2021/12/29 11:24:11;;;;;;;;;;;20.90;52.50;;;;;;5031686;28;1151;-70
2021/12/29 11:26:36;;;;;;;;;;;20.90;52.50;;;;;;5031441;28;1134;-69
2021/12/29 11:29:03;;;;;;;;;;;20.90;52.50;;;;;;5031951;28;1285;-70
2021/12/29 11:31:32;;;;;;;;;;;20.90;52.50;;;;;;5031307;28;1947;-68
2021/12/29 11:34:10;;;;;;;;;;;20.90;52.50;;;;;;5031519;28;1389;-73
2021/12/29 11:36:35;;;;;;;;;;;20.90;52.50;;;;;;5027088;28;2178;-72
2021/12/29 11:39:00;;;;;;;;;;;21.00;52.40;;;;;;5026460;28;1195;-71
2021/12/29 11:41:26;;;;;;;;;;;21.00;52.40;;;;;;5031418;28;1208;-71
2021/12/29 11:43:52;;;;;;;;;;;21.00;52.30;;;;;;5013489;28;1244;-69
2021/12/29 11:46:23;;;;;;;;;;;21.10;52.30;;;;;;5033017;28;1485;-71
2021/12/29 11:48:49;;;;;;;;;;;21.10;52.20;;;;;;5035610;28;1060;-70
2021/12/29 11:51:14;;;;;;;;;;;21.10;52.10;;;;;;5033800;28;1960;-69
2021/12/29 11:53:49;;;;;;;;;;;21.10;52.10;;;;;;5007495;28;1411;-70
2021/12/29 11:56:15;;;;;;;;;;;21.20;52.10;;;;;;5031742;28;1362;-69
2021/12/29 11:58:43;;;;;;;;;;;21.10;52.00;;;;;;5035435;28;1381;-67
2021/12/29 12:01:09;;;;;;;;;;;21.10;52.00;;;;;;5034882;28;1378;-67
2021/12/29 12:03:51;;;;;;;;;;;21.10;52.00;;;;;;5033795;28;1218;-67
2021/12/29 12:06:19;;;;;;;;;;;21.10;52.00;;;;;;5035094;28;1245;-66
2021/12/29 12:08:45;;;;;;;;;;;21.10;52.00;;;;;;5034724;28;1376;-67
2021/12/29 12:11:23;;;;;;;;;;;21.10;52.00;;;;;;5033251;28;1902;-68
2021/12/29 12:13:49;;;;;;;;;;;21.10;52.00;;;;;;5034029;28;1374;-67
2021/12/29 12:16:14;;;;;;;;;;;21.10;52.00;;;;;;5034615;28;1060;-67
2021/12/29 12:18:43;;;;;;;;;;;21.20;52.10;;;;;;5035051;28;1249;-70
2021/12/29 12:21:18;;;;;;;;;;;21.20;52.10;;;;;;5035175;28;1347;-68
2021/12/29 12:23:43;;;;;;;;;;;21.10;52.10;;;;;;5035506;28;1283;-68
2021/12/29 12:26:09;;;;;;;;;;;21.10;52.10;;;;;;5035784;28;1265;-67
2021/12/29 12:28:41;;;;;;;;;;;21.10;52.10;;;;;;5034614;28;1295;-67
2021/12/29 12:31:07;;;;;;;;;;;21.10;52.20;;;;;;5033015;28;1883;-68
2021/12/29 12:33:32;;;;;;;;;;;21.10;52.20;;;;;;5057485;22;1988;-67
2021/12/29 12:36:16;;;;;;;;;;;21.10;52.20;;;;;;5053592;28;920;-68
2021/12/29 12:38:42;;;;;;;;;;;21.10;52.20;;;;;;5055156;28;1253;-69
2021/12/29 12:41:08;;;;;;;;;;;21.00;52.20;;;;;;5053422;28;1397;-68
2021/12/29 12:43:34;;;;;;;;;;;21.10;52.30;;;;;;5053033;28;1729;-69
2021/12/29 12:46:00;;;;;;;;;;;21.00;52.30;;;;;;5054984;28;1313;-68
2021/12/29 12:48:27;;;;;;;;;;;21.00;52.30;;;;;;5053840;28;1306;-68
2021/12/29 12:50:52;;;;;;;;;;;21.00;52.40;;;;;;5053432;28;1918;-68
2021/12/29 12:53:31;;;;;;;;;;;21.00;53.00;;;;;;5052842;28;1357;-68
2021/12/29 12:55:56;;;;;;;;;;;21.00;52.40;;;;;;5054315;28;1292;-68
2021/12/29 12:58:22;;;;;;;;;;;21.00;52.40;;;;;;5054349;28;1064;-68
2021/12/29 13:00:52;;;;;;;;;;;21.00;52.40;;;;;;5053333;28;1318;-68
2021/12/29 13:03:18;;;;;;;;;;;21.00;52.40;;;;;;5045094;28;1371;-67
2021/12/29 13:05:45;;;;;;;;;;;21.00;52.40;;;;;;5033553;28;1304;-68
2021/12/29 13:08:15;;;;;;;;;;;21.10;52.40;;;;;;5034475;28;1286;-69
2021/12/29 13:10:42;;;;;;;;;;;21.10;52.30;;;;;;5041911;28;1967;-67
2021/12/29 13:13:15;;;;;;;;;;;21.10;52.30;;;;;;5032917;28;1350;-71
2021/12/29 13:15:41;;;;;;;;;;;21.10;52.30;;;;;;5057861;28;1292;-71
2021/12/29 13:18:07;;;;;;;;;;;21.10;52.20;;;;;;5034851;28;1397;-70
2021/12/29 13:20:33;;;;;;;;;;;21.10;52.20;;;;;;5037615;28;1976;-70
2021/12/29 13:22:58;;;;;;;;;;;21.20;52.20;;;;;;5051475;28;1124;-68
2021/12/29 13:25:26;;;;;;;;;;;21.10;52.10;;;;;;5049169;28;1376;-70
2021/12/29 13:28:02;;;;;;;;;;;21.20;52.20;;;;;;5034396;28;1243;-69
2021/12/29 13:30:29;;;;;;;;;;;21.10;52.20;;;;;;5034181;28;1948;-69
2021/12/29 13:32:55;;;;;;;;;;;21.10;52.20;;;;;;5033773;28;1328;-69
2021/12/29 13:35:26;;;;;;;;;;;21.10;52.20;;;;;;5033591;28;1328;-69
2021/12/29 13:37:51;;;;;;;;;;;21.10;52.20;;;;;;5032755;28;1087;-70
2021/12/29 13:40:19;;;;;;;;;;;21.10;52.20;;;;;;5034286;28;1280;-70
2021/12/29 13:42:45;;;;;;;;;;;21.10;52.20;;;;;;5033478;28;1269;-70
2021/12/29 13:45:23;;;;;;;;;;;21.10;52.20;;;;;;5034058;28;1733;-69
2021/12/29 13:47:48;;;;;;;;;;;21.10;52.30;;;;;;5034140;28;1497;-69
2021/12/29 13:50:14;;;;;;;;;;;21.10;52.30;;;;;;5033709;28;1906;-68
2021/12/29 13:52:39;;;;;;;;;;;21.10;52.30;;;;;;5032308;28;1153;-67
2021/12/29 13:55:05;;;;;;;;;;;21.10;52.40;;;;;;5033409;28;1357;-69
2021/12/29 13:57:30;;;;;;;;;;;21.00;52.30;;;;;;5032006;28;1257;-69
2021/12/29 13:59:58;;;;;;;;;;;21.00;52.40;;;;;;5033664;28;1291;-68
2021/12/29 14:02:24;;;;;;;;;;;21.00;52.40;;;;;;5041895;28;1825;-67
2021/12/29 14:04:49;;;;;;;;;;;21.00;52.40;;;;;;5046265;28;1397;-69
2021/12/29 14:07:18;;;;;;;;;;;21.00;52.50;;;;;;5044053;28;1168;-68
2021/12/29 14:09:43;;;;;;;;;;;21.00;52.50;;;;;;5042213;28;1955;-68
2021/12/29 14:12:10;;;;;;;;;;;21.00;52.50;;;;;;5033328;28;1362;-68
2021/12/29 14:14:35;;;;;;;;;;;20.90;52.50;;;;;;5047243;28;1211;-68
2021/12/29 14:17:01;;;;;;;;;;;21.00;52.60;;;;;;5044300;28;1321;-69
2021/12/29 14:19:28;;;;;;;;;;;20.90;52.60;;;;;;5040104;28;1284;-68
2021/12/29 14:21:54;;;;;;;;;;;20.90;52.60;;;;;;5040705;28;1578;-67
2021/12/29 14:24:21;;;;;;;;;;;20.90;52.60;;;;;;5029899;28;1193;-69
2021/12/29 14:26:50;;;;;;;;;;;20.90;52.70;;;;;;5031209;28;1536;-68
2021/12/29 14:29:19;;;;;;;;;;;20.90;52.70;;;;;;5031507;28;1260;-67
2021/12/29 14:31:50;;;;;;;;;;;20.90;52.80;;;;;;5031478;28;1894;-68